Time;durP1;ratioP1;P1;durP2;ratioP2;P2;SDS_P1;SDS_P2;PMS_P1;PMS_P2;Temp;Humidity;BMP_temperature;BMP_pressure;BME280_temperature;BME280_humidity;BME280_pressure;Samples;Min_cycle;Max_cycle;Signal;HPM_P1;HPM_P2
2024/01/16 00:01:46;;;;;;;8.75;0.90;;;0.60;99.90;;;;;;5070031;28;20032;-83
2024/01/16 00:04:12;;;;;;;8.07;0.90;;;0.60;99.90;;;;;;5063450;28;20040;-82
2024/01/16 00:06:41;;;;;;;6.25;1.13;;;0.60;99.90;;;;;;5069764;28;20135;-83
2024/01/16 00:09:07;;;;;;;8.13;0.80;;;0.60;99.90;;;;;;5061749;28;20063;-82
2024/01/16 00:11:33;;;;;;;6.05;1.60;;;1.10;99.90;;;;;;5064844;28;20065;-82
2024/01/16 00:13:59;;;;;;;4.20;0.88;;;0.60;99.90;;;;;;5062471;28;20048;-82
2024/01/16 00:16:24;;;;;;;4.70;1.10;;;0.60;99.90;;;;;;5050387;28;20041;-83
2024/01/16 00:18:50;;;;;;;7.50;1.05;;;0.60;99.90;;;;;;5049342;28;20048;-83
2024/01/16 00:21:16;;;;;;;8.07;1.10;;;0.60;99.90;;;;;;5048701;28;20137;-83
2024/01/16 00:23:41;;;;;;;7.00;1.10;;;0.60;99.90;;;;;;5054856;28;20412;-82
2024/01/16 00:26:07;;;;;;;8.50;1.02;;;0.60;99.90;;;;;;5054832;28;20132;-82
2024/01/16 00:28:33;;;;;;;7.05;0.90;;;0.60;99.90;;;;;;5032600;28;20052;-83
2024/01/16 00:30:58;;;;;;;6.50;0.90;;;0.60;99.90;;;;;;5033216;28;20051;-83
2024/01/16 00:33:24;;;;;;;6.18;1.10;;;0.60;99.90;;;;;;5050145;28;20102;-82
2024/01/16 00:35:49;;;;;;;9.65;1.15;;;0.60;99.90;;;;;;5066803;28;20063;-81
2024/01/16 00:38:15;;;;;;;10.00;1.00;;;0.60;99.90;;;;;;5060427;28;20049;-81
2024/01/16 00:40:41;;;;;;;8.88;1.80;;;0.60;99.90;;;;;;5051162;28;20199;-82
2024/01/16 00:43:07;;;;;;;8.20;1.00;;;0.60;99.90;;;;;;5048710;28;20048;-82
2024/01/16 00:45:32;;;;;;;7.32;0.80;;;0.70;99.90;;;;;;5051735;28;20049;-81
2024/01/16 00:47:59;;;;;;;7.03;0.80;;;1.00;99.90;;;;;;5048904;28;20041;-81
2024/01/16 00:50:25;;;;;;;6.13;0.77;;;0.60;99.90;;;;;;5049270;28;20057;-82
2024/01/16 00:52:50;;;;;;;10.27;0.82;;;0.60;99.90;;;;;;5032712;28;20045;-82
2024/01/16 00:55:17;;;;;;;6.78;0.65;;;1.40;99.90;;;;;;5056981;28;20044;-82
2024/01/16 00:57:42;;;;;;;5.93;0.75;;;0.60;99.90;;;;;;5062010;28;20056;-81
2024/01/16 01:00:09;;;;;;;5.40;0.40;;;1.40;99.90;;;;;;5066490;28;20429;-82
2024/01/16 01:02:35;;;;;;;7.65;0.60;;;0.60;99.90;;;;;;5067476;28;20054;-81
2024/01/16 01:05:01;;;;;;;10.13;0.70;;;0.60;99.90;;;;;;5064160;28;20044;-82
2024/01/16 01:07:27;;;;;;;4.00;0.55;;;0.60;99.90;;;;;;5073057;28;20062;-83
2024/01/16 01:09:52;;;;;;;7.70;1.30;;;0.60;99.90;;;;;;5063388;28;20395;-82
2024/01/16 01:12:18;;;;;;;4.70;0.70;;;0.60;99.90;;;;;;5073951;28;20045;-82
2024/01/16 01:14:44;;;;;;;7.03;1.20;;;0.60;99.90;;;;;;5074173;28;20557;-82
2024/01/16 01:17:09;;;;;;;4.18;0.47;;;0.70;99.90;;;;;;5067758;28;20408;-82
2024/01/16 01:19:35;;;;;;;5.47;0.70;;;0.70;99.90;;;;;;5072584;28;20054;-82
2024/01/16 01:22:01;;;;;;;3.75;0.70;;;1.00;99.90;;;;;;5055173;28;20053;-82
2024/01/16 01:24:26;;;;;;;5.18;0.55;;;0.90;99.90;;;;;;5054522;28;20099;-82
2024/01/16 01:26:52;;;;;;;5.10;0.50;;;0.80;99.90;;;;;;5072798;28;20045;-82
2024/01/16 01:29:17;;;;;;;10.90;0.90;;;0.90;99.90;;;;;;5072642;28;20045;-82
2024/01/16 01:31:47;;;;;;;9.32;0.73;;;0.70;99.90;;;;;;5067701;28;20750;-81
2024/01/16 01:34:13;;;;;;;5.22;0.70;;;0.70;99.90;;;;;;5067548;28;20040;-81
2024/01/16 01:36:39;;;;;;;5.50;0.82;;;0.70;99.90;;;;;;5070120;28;20515;-82
2024/01/16 01:39:04;;;;;;;5.45;0.50;;;0.70;99.90;;;;;;5066364;28;20091;-82
2024/01/16 01:41:31;;;;;;;4.97;0.90;;;0.70;99.90;;;;;;5055088;28;20051;-82
2024/01/16 01:43:56;;;;;;;4.22;0.75;;;1.60;99.90;;;;;;5052975;28;20082;-82
2024/01/16 01:46:22;;;;;;;6.97;0.82;;;0.60;99.90;;;;;;5052274;28;20045;-82
2024/01/16 01:48:49;;;;;;;7.70;1.13;;;1.50;99.90;;;;;;5054026;28;20095;-82
2024/01/16 01:51:18;;;;;;;6.38;0.65;;;0.50;99.90;;;;;;5072986;28;20458;-82
2024/01/16 01:53:46;;;;;;;5.85;0.55;;;0.50;99.90;;;;;;5054078;28;20096;-82
2024/01/16 01:56:15;;;;;;;6.68;0.73;;;0.40;99.90;;;;;;5051913;28;20051;-82
2024/01/16 01:58:44;;;;;;;6.93;0.70;;;0.90;99.90;;;;;;5062153;28;20049;-82
2024/01/16 02:01:11;;;;;;;4.30;0.73;;;0.30;99.90;;;;;;5060562;28;20049;-81
2024/01/16 02:03:42;;;;;;;2.95;0.40;;;0.30;99.90;;;;;;5058950;28;20075;-82
2024/01/16 02:06:08;;;;;;;7.82;0.63;;;0.80;99.90;;;;;;5071529;28;20538;-82
2024/01/16 02:08:34;;;;;;;6.82;0.80;;;0.20;99.90;;;;;;5070339;28;20049;-81
2024/01/16 02:11:00;;;;;;;6.00;0.70;;;0.20;99.90;;;;;;5057743;28;20162;-82
2024/01/16 02:13:25;;;;;;;6.18;0.90;;;0.20;99.90;;;;;;5052965;28;20087;-82
2024/01/16 02:15:51;;;;;;;5.20;0.70;;;0.30;99.90;;;;;;5051782;28;20392;-82
2024/01/16 02:18:17;;;;;;;6.38;0.90;;;0.30;99.90;;;;;;5052685;28;20404;-82
2024/01/16 02:20:44;;;;;;;5.95;1.05;;;0.40;99.90;;;;;;5052936;28;20045;-82
2024/01/16 02:23:12;;;;;;;5.10;0.60;;;0.50;99.90;;;;;;5053311;28;20576;-81
2024/01/16 02:25:39;;;;;;;9.35;0.98;;;0.40;99.90;;;;;;5052704;28;20115;-82
2024/01/16 02:28:05;;;;;;;7.15;0.95;;;0.50;99.90;;;;;;5069514;28;20045;-82
2024/01/16 02:30:30;;;;;;;7.10;0.70;;;0.40;99.90;;;;;;5071180;28;20423;-82
2024/01/16 02:32:56;;;;;;;5.18;0.80;;;0.70;99.90;;;;;;5055022;28;20115;-82
2024/01/16 02:35:22;;;;;;;9.25;1.40;;;0.50;99.90;;;;;;5052621;28;20467;-82
2024/01/16 02:37:47;;;;;;;5.53;0.95;;;0.50;99.90;;;;;;5052195;28;20128;-83
2024/01/16 02:40:13;;;;;;;5.60;0.77;;;1.00;99.90;;;;;;5068756;28;20120;-82
2024/01/16 02:42:39;;;;;;;4.47;0.57;;;1.20;99.90;;;;;;5061222;28;20051;-82
2024/01/16 02:45:06;;;;;;;6.60;0.80;;;0.40;99.90;;;;;;5046836;28;20066;-82
2024/01/16 02:47:32;;;;;;;4.60;0.50;;;0.40;99.90;;;;;;5072233;28;20450;-82
2024/01/16 02:49:59;;;;;;;10.40;3.20;;;0.40;99.90;;;;;;5073160;28;20059;-82
2024/01/16 02:52:24;;;;;;;4.53;0.90;;;0.40;99.90;;;;;;5067860;28;20060;-82
2024/01/16 02:54:50;;;;;;;6.45;0.77;;;1.30;99.90;;;;;;5051484;28;20059;-82
2024/01/16 02:57:15;;;;;;;6.18;0.73;;;1.00;99.90;;;;;;5052074;28;20107;-82
2024/01/16 02:59:44;;;;;;;3.47;0.52;;;0.30;99.90;;;;;;5050830;28;20067;-82
2024/01/16 03:02:11;;;;;;;6.32;1.00;;;0.30;99.90;;;;;;5049609;28;20404;-83
2024/01/16 03:04:37;;;;;;;4.95;0.63;;;0.30;99.90;;;;;;5050942;28;20071;-82
2024/01/16 03:07:03;;;;;;;6.85;0.75;;;0.30;99.90;;;;;;5050520;28;20036;-81
2024/01/16 03:09:28;;;;;;;9.10;0.98;;;0.20;99.90;;;;;;5051787;28;20045;-82
2024/01/16 03:11:54;;;;;;;8.27;0.70;;;0.20;99.90;;;;;;5058771;28;20065;-82
2024/01/16 03:14:20;;;;;;;4.22;0.60;;;0.10;99.90;;;;;;5051508;28;20156;-82
2024/01/16 03:16:46;;;;;;;16.50;3.25;;;0.20;99.90;;;;;;5057132;28;20047;-82
2024/01/16 03:19:12;;;;;;;8.07;0.70;;;0.20;99.90;;;;;;5069798;28;20051;-82
2024/01/16 03:21:38;;;;;;;7.82;0.90;;;0.80;99.90;;;;;;5064456;28;20049;-83
2024/01/16 03:24:05;;;;;;;3.47;0.50;;;0.20;99.90;;;;;;5059581;28;20556;-82
2024/01/16 03:26:32;;;;;;;6.90;0.70;;;0.10;99.90;;;;;;5069712;28;20488;-83
2024/01/16 03:28:58;;;;;;;5.80;0.80;;;0.10;99.90;;;;;;5070012;28;20056;-83
2024/01/16 03:31:24;;;;;;;6.47;0.70;;;0.10;99.90;;;;;;5067676;28;20060;-82
2024/01/16 03:33:50;;;;;;;3.70;0.77;;;0.00;99.90;;;;;;5063298;28;20048;-83
2024/01/16 03:36:16;;;;;;;7.63;0.80;;;0.00;99.90;;;;;;5070179;28;20405;-83
2024/01/16 03:38:45;;;;;;;6.13;0.95;;;0.00;99.90;;;;;;5068215;28;20041;-82
2024/01/16 03:41:11;;;;;;;6.13;1.17;;;0.60;99.90;;;;;;5066670;28;20044;-82
2024/01/16 03:43:36;;;;;;;11.02;0.95;;;0.00;99.90;;;;;;5049443;28;20460;-83
2024/01/16 03:46:03;;;;;;;4.38;0.70;;;0.00;99.90;;;;;;5051131;28;20397;-82
2024/01/16 03:48:28;;;;;;;5.18;0.68;;;0.00;99.90;;;;;;5052684;28;20082;-82
2024/01/16 03:50:55;;;;;;;3.42;0.70;;;0.00;99.90;;;;;;5049464;28;20064;-82
2024/01/16 03:53:21;;;;;;;4.78;0.70;;;0.00;99.90;;;;;;5049323;28;20080;-82
2024/01/16 03:55:47;;;;;;;4.68;0.70;;;0.00;99.90;;;;;;5049313;28;20045;-82
2024/01/16 03:58:13;;;;;;;6.60;0.75;;;-0.10;99.90;;;;;;5050921;28;20102;-83
2024/01/16 04:00:38;;;;;;;5.47;0.82;;;-0.10;99.90;;;;;;5048838;28;20471;-82
2024/01/16 04:03:05;;;;;;;7.80;0.85;;;0.70;99.90;;;;;;5060568;28;20055;-82
2024/01/16 04:05:31;;;;;;;7.45;0.88;;;-0.10;99.90;;;;;;5070926;28;20060;-82
2024/01/16 04:07:59;;;;;;;7.05;0.77;;;-0.10;99.90;;;;;;5062365;28;20547;-83
2024/01/16 04:10:25;;;;;;;20.33;1.17;;;-0.10;99.90;;;;;;5064425;28;20041;-82
2024/01/16 04:12:51;;;;;;;7.85;0.77;;;-0.10;99.90;;;;;;5065083;28;20555;-83
2024/01/16 04:15:17;;;;;;;7.20;0.80;;;0.80;99.90;;;;;;5070652;28;20048;-82
2024/01/16 04:17:42;;;;;;;3.42;0.50;;;0.50;99.90;;;;;;5070289;28;20088;-82
2024/01/16 04:20:09;;;;;;;4.68;0.60;;;-0.10;99.90;;;;;;5070852;28;20044;-83
2024/01/16 04:22:35;;;;;;;6.45;0.73;;;-0.10;99.90;;;;;;5044667;28;20504;-82
2024/01/16 04:25:01;;;;;;;9.15;0.95;;;0.80;99.90;;;;;;5067672;28;20550;-82
2024/01/16 04:27:27;;;;;;;5.05;0.65;;;-0.10;99.90;;;;;;5066677;28;20079;-82
2024/01/16 04:29:53;;;;;;;4.18;1.75;;;-0.10;99.90;;;;;;5049582;28;20041;-81
2024/01/16 04:32:19;;;;;;;5.53;0.60;;;-0.20;99.90;;;;;;5063167;28;20100;-81
2024/01/16 04:34:44;;;;;;;5.53;0.80;;;-0.10;99.90;;;;;;5054402;28;20049;-82
2024/01/16 04:37:10;;;;;;;7.13;0.95;;;-0.20;99.90;;;;;;5053740;28;20094;-82
2024/01/16 04:39:36;;;;;;;5.05;0.60;;;0.00;99.90;;;;;;5063296;28;20427;-83
2024/01/16 04:42:02;;;;;;;3.38;0.40;;;-0.20;99.90;;;;;;5066126;28;20040;-82
2024/01/16 04:44:28;;;;;;;3.90;0.60;;;-0.20;99.90;;;;;;5072563;28;20043;-82
2024/01/16 04:46:53;;;;;;;10.23;1.88;;;0.40;99.90;;;;;;5066285;28;20145;-82
2024/01/16 04:49:19;;;;;;;8.35;0.88;;;-0.10;99.90;;;;;;5067960;28;20512;-82
2024/01/16 04:51:44;;;;;;;9.77;0.77;;;-0.10;99.90;;;;;;5073289;28;20473;-82
2024/01/16 04:54:11;;;;;;;9.73;1.95;;;-0.20;99.90;;;;;;5058839;28;20048;-82
2024/01/16 04:56:37;;;;;;;4.75;0.60;;;-0.20;99.90;;;;;;5054387;28;20041;-82
2024/01/16 04:59:03;;;;;;;4.88;0.60;;;-0.10;99.90;;;;;;5067167;28;20209;-82
2024/01/16 05:01:28;;;;;;;9.07;0.98;;;-0.10;99.90;;;;;;5069928;28;20041;-81
2024/01/16 05:03:54;;;;;;;8.38;0.73;;;-0.10;99.90;;;;;;5053900;28;20084;-82
2024/01/16 05:06:20;;;;;;;7.45;0.75;;;-0.20;99.90;;;;;;5052992;28;20082;-82
2024/01/16 05:08:46;;;;;;;8.55;1.20;;;-0.20;99.90;;;;;;5065147;28;20087;-82
2024/01/16 05:11:11;;;;;;;7.38;0.75;;;-0.10;99.90;;;;;;5064123;28;20053;-82
2024/01/16 05:13:37;;;;;;;7.32;0.70;;;-0.10;99.90;;;;;;5074623;28;20113;-82
2024/01/16 05:16:03;;;;;;;3.05;0.80;;;-0.10;99.90;;;;;;5075854;28;20047;-82
2024/01/16 05:18:28;;;;;;;10.68;1.85;;;-0.10;99.90;;;;;;5071532;28;20045;-81
2024/01/16 05:20:56;;;;;;;9.10;0.90;;;-0.10;99.90;;;;;;5065026;28;20037;-82
2024/01/16 05:23:21;;;;;;;9.98;1.00;;;-0.10;99.90;;;;;;5058454;28;20048;-82
2024/01/16 05:25:47;;;;;;;8.30;1.00;;;-0.10;99.90;;;;;;5072343;28;20527;-82
2024/01/16 05:28:13;;;;;;;9.15;0.90;;;-0.10;99.90;;;;;;5069450;28;20044;-82
2024/01/16 05:30:39;;;;;;;3.35;0.52;;;-0.10;99.90;;;;;;5072264;28;20133;-82
2024/01/16 05:33:04;;;;;;;5.32;0.70;;;-0.10;99.90;;;;;;5056467;28;20080;-82
2024/01/16 05:35:30;;;;;;;7.15;0.70;;;-0.10;99.90;;;;;;5036278;28;20045;-82
2024/01/16 05:37:56;;;;;;;10.82;0.60;;;0.00;99.90;;;;;;5060481;28;20395;-82
2024/01/16 05:40:22;;;;;;;7.82;1.10;;;0.30;99.90;;;;;;5065286;28;20124;-82
2024/01/16 05:42:49;;;;;;;7.18;0.90;;;1.00;99.90;;;;;;5055107;28;20124;-83
2024/01/16 05:45:15;;;;;;;13.30;1.50;;;0.40;99.90;;;;;;5052056;28;20049;-82
2024/01/16 05:47:41;;;;;;;6.45;0.90;;;0.10;99.90;;;;;;5062712;28;20048;-82
2024/01/16 05:50:07;;;;;;;6.75;1.00;;;0.10;99.90;;;;;;5068420;28;20061;-82
2024/01/16 05:52:32;;;;;;;6.95;0.60;;;0.10;99.90;;;;;;5063001;28;20071;-81
2024/01/16 05:54:59;;;;;;;8.00;1.00;;;0.10;99.90;;;;;;5065607;28;20055;-84
2024/01/16 05:57:26;;;;;;;4.10;0.63;;;0.10;99.90;;;;;;5074516;28;20445;-83
2024/01/16 05:59:52;;;;;;;7.13;0.70;;;0.70;99.90;;;;;;5066624;28;20049;-82
2024/01/16 06:02:17;;;;;;;4.07;0.75;;;0.60;99.90;;;;;;5067990;28;20098;-82
2024/01/16 06:04:43;;;;;;;8.40;0.95;;;0.30;99.90;;;;;;5070277;28;20041;-81
2024/01/16 06:07:08;;;;;;;9.32;0.85;;;1.20;99.90;;;;;;5064735;28;20126;-81
2024/01/16 06:09:41;;;;;;;8.65;1.00;;;0.60;99.90;;;;;;5057996;28;20131;-81
2024/01/16 06:12:07;;;;;;;8.18;0.77;;;0.60;99.90;;;;;;5068212;28;20052;-81
2024/01/16 06:14:33;;;;;;;7.20;0.60;;;0.30;99.90;;;;;;5071740;28;20043;-81
2024/01/16 06:16:59;;;;;;;4.72;0.90;;;1.20;99.90;;;;;;5073504;28;20115;-81
2024/01/16 06:19:24;;;;;;;8.85;0.80;;;0.30;99.90;;;;;;5066377;28;20524;-81
2024/01/16 06:21:50;;;;;;;7.43;1.08;;;0.60;99.90;;;;;;5036454;28;20059;-81
2024/01/16 06:24:16;;;;;;;5.40;0.75;;;0.20;99.90;;;;;;5053284;28;20412;-81
2024/01/16 06:26:42;;;;;;;8.48;1.30;;;1.20;99.90;;;;;;5051896;28;20045;-81
2024/01/16 06:29:07;;;;;;;5.43;0.52;;;0.20;99.90;;;;;;5053138;28;20048;-82
2024/01/16 06:31:33;;;;;;;9.10;0.80;;;0.20;99.90;;;;;;5058761;28;20036;-81
2024/01/16 06:33:59;;;;;;;6.70;0.60;;;0.20;99.90;;;;;;5067942;28;20036;-81
2024/01/16 06:36:25;;;;;;;5.10;0.77;;;0.20;99.90;;;;;;5063550;28;20044;-81
2024/01/16 06:38:50;;;;;;;7.47;1.23;;;0.20;99.90;;;;;;5054112;28;20453;-82
2024/01/16 06:41:16;;;;;;;9.98;1.00;;;0.20;99.90;;;;;;5055275;28;20040;-82
2024/01/16 06:43:42;;;;;;;9.07;0.95;;;0.40;99.90;;;;;;5069514;28;20044;-81
2024/01/16 06:46:08;;;;;;;7.28;0.85;;;0.20;99.90;;;;;;5070283;28;20040;-83
2024/01/16 06:48:37;;;;;;;7.47;1.10;;;0.10;99.90;;;;;;5053093;28;20052;-81
2024/01/16 06:51:04;;;;;;;7.18;1.10;;;0.10;99.90;;;;;;5065146;28;20052;-83
2024/01/16 06:53:30;;;;;;;5.00;0.77;;;0.10;99.90;;;;;;5053297;28;20075;-84
2024/01/16 06:55:56;;;;;;;7.07;0.68;;;0.10;99.90;;;;;;5053753;28;20053;-83
2024/01/16 06:58:22;;;;;;;9.05;0.80;;;0.10;99.90;;;;;;5067214;28;20049;-82
2024/01/16 07:00:48;;;;;;;10.10;1.40;;;1.30;99.90;;;;;;5073278;28;20110;-79
2024/01/16 07:03:13;;;;;;;5.68;1.10;;;0.10;99.90;;;;;;5062956;28;20044;-81
2024/01/16 07:05:43;;;;;;;5.43;0.80;;;0.10;99.90;;;;;;5036130;28;20056;-79
2024/01/16 07:08:09;;;;;;;8.02;1.00;;;0.70;99.90;;;;;;5052684;28;20056;-81
2024/01/16 07:10:35;;;;;;;7.32;0.90;;;1.60;99.90;;;;;;5060715;28;20047;-79
2024/01/16 07:13:01;;;;;;;7.82;0.70;;;0.10;99.90;;;;;;5061083;28;20423;-80
2024/01/16 07:15:27;;;;;;;6.03;0.70;;;0.10;99.90;;;;;;5050992;28;20350;-80
2024/01/16 07:17:53;;;;;;;10.40;1.20;;;0.10;99.90;;;;;;5060049;28;20036;-80
2024/01/16 07:20:19;;;;;;;7.18;0.73;;;0.10;99.90;;;;;;5051592;28;20045;-79
2024/01/16 07:22:45;;;;;;;6.85;0.77;;;0.10;99.90;;;;;;5051894;28;20061;-79
2024/01/16 07:25:11;;;;;;;7.38;1.08;;;0.40;99.90;;;;;;5052524;28;20397;-79
2024/01/16 07:27:37;;;;;;;4.38;0.93;;;0.60;99.90;;;;;;5060924;28;20042;-91
2024/01/16 07:30:06;;;;;;;2.53;0.70;;;0.40;99.90;;;;;;5069392;28;20136;-79
2024/01/16 07:32:32;;;;;;;3.35;0.55;;;0.10;99.90;;;;;;5069955;28;20041;-79
2024/01/16 07:34:57;;;;;;;6.35;0.68;;;0.10;99.90;;;;;;5069545;28;20053;-79
2024/01/16 07:37:23;;;;;;;7.13;1.25;;;0.90;99.90;;;;;;5070500;28;20040;-79
2024/01/16 07:39:49;;;;;;;7.75;0.82;;;0.10;99.90;;;;;;5070677;28;20565;-79
2024/01/16 07:42:14;;;;;;;5.85;0.80;;;0.10;99.90;;;;;;5070683;28;20048;-79
2024/01/16 07:44:40;;;;;;;7.90;0.85;;;0.50;99.90;;;;;;5054999;28;20094;-79
2024/01/16 07:47:06;;;;;;;10.73;1.00;;;0.10;99.90;;;;;;5062803;28;20545;-79
2024/01/16 07:49:31;;;;;;;6.53;0.73;;;0.10;99.90;;;;;;5051633;28;20045;-79
2024/01/16 07:51:57;;;;;;;8.18;0.73;;;0.10;99.90;;;;;;5050762;28;20147;-79
2024/01/16 07:54:24;;;;;;;4.68;1.42;;;0.10;99.90;;;;;;5051527;28;20432;-79
2024/01/16 07:56:49;;;;;;;8.60;0.90;;;0.10;99.90;;;;;;5050339;28;20052;-79
2024/01/16 07:59:15;;;;;;;4.75;0.75;;;0.10;99.90;;;;;;5051613;28;20392;-79
2024/01/16 08:01:40;;;;;;;6.15;1.42;;;1.10;99.90;;;;;;5053284;28;20049;-79
2024/01/16 08:04:06;;;;;;;2.45;0.47;;;0.10;99.90;;;;;;5071507;28;20123;-79
2024/01/16 08:06:32;;;;;;;2.72;0.68;;;0.80;99.90;;;;;;5065510;28;20108;-79
2024/01/16 08:08:57;;;;;;;7.63;0.90;;;0.20;99.90;;;;;;5050213;28;20133;-79
2024/01/16 08:11:23;;;;;;;10.55;0.80;;;0.20;99.90;;;;;;5049630;28;20552;-79
2024/01/16 08:13:49;;;;;;;6.70;0.70;;;0.70;99.90;;;;;;5049966;28;20049;-79
2024/01/16 08:16:14;;;;;;;8.77;0.88;;;0.90;99.90;;;;;;5050679;28;20606;-79
2024/01/16 08:18:40;;;;;;;5.50;0.80;;;0.30;99.90;;;;;;5069168;28;20059;-79
2024/01/16 08:21:07;;;;;;;3.75;0.60;;;0.20;99.90;;;;;;5059161;28;20202;-79
2024/01/16 08:23:34;;;;;;;5.63;0.73;;;0.20;99.90;;;;;;5050020;28;20045;-80
2024/01/16 08:26:00;;;;;;;2.85;0.57;;;0.20;99.90;;;;;;5049519;28;20505;-79
2024/01/16 08:28:26;;;;;;;7.75;0.90;;;0.30;99.90;;;;;;5049563;28;20060;-79
2024/01/16 08:30:52;;;;;;;10.45;1.02;;;0.30;99.90;;;;;;5049916;28;20072;-80
2024/01/16 08:33:18;;;;;;;6.97;0.95;;;0.30;99.90;;;;;;5065104;28;20516;-79
2024/01/16 08:35:44;;;;;;;8.13;1.08;;;0.80;99.90;;;;;;5069895;28;20063;-79
2024/01/16 08:38:10;;;;;;;8.15;0.93;;;0.30;99.90;;;;;;5069738;28;20064;-79
2024/01/16 08:40:35;;;;;;;7.72;1.05;;;0.80;99.90;;;;;;5071317;28;20439;-79
2024/01/16 08:43:01;;;;;;;10.85;2.63;;;0.30;99.90;;;;;;5068654;28;20127;-80
2024/01/16 08:45:27;;;;;;;7.35;1.20;;;0.30;99.90;;;;;;5060593;28;20055;-79
2024/01/16 08:47:53;;;;;;;4.55;1.23;;;0.40;99.90;;;;;;5053007;28;20076;-79
2024/01/16 08:50:18;;;;;;;5.45;0.85;;;0.40;99.90;;;;;;5052871;28;20446;-79
2024/01/16 08:52:44;;;;;;;5.95;1.33;;;0.40;99.90;;;;;;5069577;28;20052;-79
2024/01/16 08:55:10;;;;;;;5.40;1.50;;;0.40;99.90;;;;;;5069550;28;20512;-79
2024/01/16 08:57:37;;;;;;;2.95;1.10;;;1.20;99.90;;;;;;5069347;28;20044;-79
2024/01/16 09:00:04;;;;;;;9.30;1.88;;;0.50;99.90;;;;;;5069858;28;20048;-79
2024/01/16 09:02:30;;;;;;;5.63;1.88;;;0.50;99.90;;;;;;5061633;28;20045;-79
2024/01/16 09:04:58;;;;;;;6.20;1.60;;;1.40;99.90;;;;;;5050757;28;20056;-79
2024/01/16 09:07:24;;;;;;;5.88;1.80;;;0.60;99.90;;;;;;5050531;28;20052;-79
2024/01/16 09:09:50;;;;;;;6.20;1.75;;;0.70;99.90;;;;;;5049997;28;20056;-79
2024/01/16 09:12:15;;;;;;;9.00;1.70;;;0.70;99.90;;;;;;5069725;28;20116;-78
2024/01/16 09:14:41;;;;;;;9.38;2.25;;;0.80;99.90;;;;;;5068653;28;20476;-78
2024/01/16 09:17:07;;;;;;;8.82;1.95;;;0.80;99.90;;;;;;5069464;28;20523;-78
2024/01/16 09:19:32;;;;;;;10.55;2.13;;;0.90;99.90;;;;;;5071672;28;20053;-78
2024/01/16 09:21:58;;;;;;;8.60;2.00;;;0.90;99.90;;;;;;5055391;28;20420;-78
2024/01/16 09:24:24;;;;;;;7.45;1.95;;;1.00;99.90;;;;;;5052986;28;20060;-78
2024/01/16 09:26:49;;;;;;;6.45;2.15;;;1.00;99.90;;;;;;5053266;28;20052;-78
2024/01/16 09:29:16;;;;;;;9.07;1.88;;;1.00;99.90;;;;;;5052986;28;20044;-78
2024/01/16 09:31:42;;;;;;;7.25;1.83;;;1.00;99.90;;;;;;5053922;28;20045;-78
2024/01/16 09:34:07;;;;;;;6.75;1.70;;;1.30;99.90;;;;;;5073099;28;20488;-78
2024/01/16 09:36:35;;;;;;;10.80;1.90;;;1.20;99.90;;;;;;5072883;28;20032;-78
2024/01/16 09:39:02;;;;;;;7.25;2.33;;;1.10;99.90;;;;;;5072405;28;20071;-78
2024/01/16 09:41:28;;;;;;;7.88;2.17;;;1.10;99.90;;;;;;5066798;28;20041;-78
2024/01/16 09:43:54;;;;;;;5.03;1.30;;;1.10;99.90;;;;;;5053020;28;20137;-78
2024/01/16 09:46:24;;;;;;;5.47;1.77;;;1.10;99.90;;;;;;5070558;28;20090;-78
2024/01/16 09:48:53;;;;;;;4.97;1.48;;;1.10;99.90;;;;;;5071938;28;20060;-78
2024/01/16 09:51:19;;;;;;;7.65;2.03;;;1.10;99.90;;;;;;5072785;28;20047;-78
2024/01/16 09:53:45;;;;;;;5.82;1.35;;;1.10;99.90;;;;;;5058963;28;20416;-78
2024/01/16 09:56:20;;;;;;;3.95;0.93;;;1.10;99.90;;;;;;5069129;28;20052;-78
2024/01/16 09:58:48;;;;;;;5.63;1.35;;;1.20;99.90;;;;;;5069822;28;20063;-79
2024/01/16 10:01:15;;;;;;;12.23;1.65;;;1.20;99.90;;;;;;5060649;28;20052;-78
2024/01/16 10:03:44;;;;;;;5.95;1.30;;;1.20;99.90;;;;;;5058754;28;20143;-80
2024/01/16 10:06:11;;;;;;;5.95;1.15;;;1.20;99.90;;;;;;5063745;28;20045;-78
2024/01/16 10:08:37;;;;;;;6.10;1.30;;;1.30;99.90;;;;;;5052210;28;20052;-78
2024/01/16 10:11:03;;;;;;;8.27;1.30;;;1.30;99.90;;;;;;5052501;28;20056;-78
2024/01/16 10:13:29;;;;;;;4.55;1.50;;;1.40;99.90;;;;;;5051702;28;20420;-79
2024/01/16 10:15:55;;;;;;;5.70;1.60;;;1.40;99.90;;;;;;5052285;28;20048;-79
2024/01/16 10:18:32;;;;;;;6.10;2.17;;;1.40;99.90;;;;;;5035309;28;20102;-79
2024/01/16 10:20:57;;;;;;;10.68;2.00;;;1.40;99.90;;;;;;5052237;28;20127;-79
2024/01/16 10:23:28;;;;;;;7.53;1.80;;;1.40;99.90;;;;;;5051440;28;20191;-79
2024/01/16 10:26:06;;;;;;;9.73;2.47;;;1.40;99.90;;;;;;5052126;28;20064;-79
2024/01/16 10:28:34;;;;;;;7.95;2.70;;;1.40;99.90;;;;;;5059488;28;20055;-79
2024/01/16 10:31:04;;;;;;;12.70;2.88;;;1.40;99.90;;;;;;5071762;28;20064;-79
2024/01/16 10:33:30;;;;;;;8.30;3.25;;;1.40;99.90;;;;;;5055851;28;20056;-79
2024/01/16 10:36:16;;;;;;;8.70;3.30;;;1.40;99.90;;;;;;5051852;28;20404;-79
2024/01/16 10:38:44;;;;;;;14.23;3.33;;;1.50;99.90;;;;;;5051998;28;20049;-79
2024/01/16 10:41:13;;;;;;;10.30;3.65;;;1.50;99.90;;;;;;5051268;28;20444;-79
2024/01/16 10:43:39;;;;;;;9.60;4.25;;;1.50;99.90;;;;;;5051907;28;20071;-79
2024/01/16 10:46:12;;;;;;;11.98;4.28;;;1.50;99.90;;;;;;5065905;28;20056;-79
2024/01/16 10:48:39;;;;;;;9.23;3.55;;;1.60;99.90;;;;;;5071692;28;20449;-79
2024/01/16 10:51:17;;;;;;;11.77;4.45;;;1.60;99.90;;;;;;5071290;28;20228;-79
2024/01/16 10:53:44;;;;;;;17.20;5.22;;;1.70;99.90;;;;;;5053771;28;20045;-79
2024/01/16 10:56:12;;;;;;;12.25;4.55;;;1.70;99.90;;;;;;5051194;28;20056;-79
2024/01/16 10:58:42;;;;;;;13.50;5.10;;;1.70;99.90;;;;;;5051321;28;20045;-80
2024/01/16 11:01:15;;;;;;;14.80;5.15;;;1.70;99.90;;;;;;5054323;28;20500;-79
2024/01/16 11:03:52;;;;;;;12.80;5.30;;;2.10;99.90;;;;;;5051204;28;20048;-79
2024/01/16 11:06:18;;;;;;;15.80;5.07;;;1.70;99.90;;;;;;5052338;28;20041;-79
2024/01/16 11:08:51;;;;;;;15.77;4.85;;;1.70;99.90;;;;;;5051260;28;20056;-79
2024/01/16 11:11:17;;;;;;;10.88;4.90;;;1.70;99.90;;;;;;5051821;28;20905;-79
2024/01/16 11:13:44;;;;;;;11.38;5.00;;;1.70;99.90;;;;;;5050926;28;20067;-79
2024/01/16 11:16:11;;;;;;;13.32;4.78;;;1.70;99.90;;;;;;5065240;28;20056;-79
2024/01/16 11:18:37;;;;;;;13.43;4.65;;;1.70;99.90;;;;;;5052239;28;20045;-79
2024/01/16 11:21:16;;;;;;;7.97;4.22;;;1.60;99.90;;;;;;5050956;28;20052;-79
2024/01/16 11:23:41;;;;;;;12.10;4.45;;;2.70;99.90;;;;;;5050864;28;20121;-79
2024/01/16 11:26:32;;;;;;;11.25;4.07;;;1.60;99.90;;;;;;5051138;28;20053;-79
2024/01/16 11:29:00;;;;;;;11.75;3.28;;;1.60;99.90;;;;;;5064563;28;20037;-79
2024/01/16 11:31:30;;;;;;;8.02;2.20;;;1.60;99.90;;;;;;5066256;28;20123;-79
2024/01/16 11:33:56;;;;;;;4.13;1.60;;;1.60;99.90;;;;;;5054472;28;20097;-79
2024/01/16 11:36:53;;;;;;;5.47;2.15;;;1.80;99.90;;;;;;5071881;28;20045;-79
2024/01/16 11:39:28;;;;;;;6.93;2.00;;;1.50;99.90;;;;;;5071671;28;20072;-79
2024/01/16 11:42:02;;;;;;;11.43;2.22;;;1.50;99.90;;;;;;5070519;28;20660;-79
2024/01/16 11:44:42;;;;;;;7.60;1.92;;;1.40;99.90;;;;;;5067144;28;20109;-79
2024/01/16 11:47:08;;;;;;;4.10;1.40;;;1.40;99.90;;;;;;5051190;28;20057;-79
2024/01/16 11:49:35;;;;;;;5.65;1.85;;;1.40;99.90;;;;;;5050508;28;20069;-78
2024/01/16 11:52:02;;;;;;;5.05;1.85;;;1.30;99.90;;;;;;5052193;28;20036;-79
2024/01/16 11:54:27;;;;;;;4.68;1.25;;;1.30;99.90;;;;;;5069601;28;20053;-79
2024/01/16 11:57:12;;;;;;;6.70;1.60;;;1.30;99.90;;;;;;5070607;28;20072;-79
2024/01/16 12:00:24;;;;;;;6.80;1.70;;;1.30;99.90;;;;;;5070373;28;20055;-79
2024/01/16 12:02:54;;;;;;;6.28;1.75;;;1.30;99.90;;;;;;5050337;28;20044;-79
2024/01/16 12:05:20;;;;;;;6.97;1.75;;;1.30;99.90;;;;;;5050333;28;20060;-79
2024/01/16 12:07:50;;;;;;;7.10;1.70;;;1.40;99.90;;;;;;5063942;28;20146;-79
2024/01/16 12:10:21;;;;;;;6.32;1.95;;;1.40;99.90;;;;;;5071016;28;20399;-79
2024/01/16 12:12:48;;;;;;;4.95;1.50;;;1.40;99.90;;;;;;5065422;28;20052;-79
2024/01/16 12:15:21;;;;;;;6.72;1.63;;;1.50;99.90;;;;;;5069524;28;20041;-79
2024/01/16 12:17:59;;;;;;;6.70;1.35;;;1.50;99.90;;;;;;5050714;28;20094;-79
2024/01/16 12:20:33;;;;;;;5.85;1.60;;;1.60;99.90;;;;;;5050931;28;20393;-85
2024/01/16 12:22:59;;;;;;;;;;;1.70;99.90;;;;;;5051333;28;20064;-81
2024/01/16 12:25:26;;;;;;;7.93;1.80;;;1.80;99.90;;;;;;5064714;28;19927;-84
2024/01/16 12:28:00;;;;;;;4.63;1.70;;;1.90;99.90;;;;;;5071637;28;20102;-82
2024/01/16 12:30:35;;;;;;;6.97;1.67;;;2.00;99.90;;;;;;5071646;28;20123;-87
2024/01/16 12:33:12;;;;;;;8.98;2.05;;;2.10;99.90;;;;;;5073061;28;20104;-90
2024/01/16 12:35:42;;;;;;;7.07;1.73;;;2.20;99.90;;;;;;5080640;28;20049;-88
2024/01/16 12:38:10;;;;;;;7.72;1.83;;;2.30;99.90;;;;;;5080254;28;20052;-89
2024/01/16 12:40:40;;;;;;;4.85;1.50;;;2.40;99.90;;;;;;5056971;28;20037;-79
2024/01/16 12:43:07;;;;;;;6.60;1.30;;;2.40;99.90;;;;;;5051921;28;20048;-79
2024/01/16 12:45:33;;;;;;;6.50;2.33;;;2.50;99.90;;;;;;5051656;28;20056;-81
2024/01/16 12:47:59;;;;;;;5.72;1.50;;;2.50;99.90;;;;;;5057825;28;20045;-80
2024/01/16 12:50:27;;;;;;;5.88;1.80;;;2.60;99.90;;;;;;5051285;28;20052;-82
2024/01/16 12:53:12;;;;;;;6.78;1.90;;;2.70;99.90;;;;;;5063082;28;20041;-83
2024/01/16 12:55:39;;;;;;;5.53;2.33;;;2.70;99.90;;;;;;5071252;28;20131;-81